sensor_id;sensor_type;location;lat;lon;timestamp;P1;durP1;ratioP1;P2;durP2;ratioP2
20181;SDS011;10250;50.756;6.172;2023-04-22T00:01:26;10.17;;;2.67;;
20181;SDS011;10250;50.756;6.172;2023-04-22T00:03:27;7.90;;;2.27;;
20181;SDS011;10250;50.756;6.172;2023-04-22T00:05:28;8.70;;;2.20;;
20181;SDS011;10250;50.756;6.172;2023-04-22T00:07:29;6.50;;;1.83;;
20181;SDS011;10250;50.756;6.172;2023-04-22T00:09:30;8.13;;;2.07;;
20181;SDS011;10250;50.756;6.172;2023-04-22T00:11:30;8.27;;;2.17;;
20181;SDS011;10250;50.756;6.172;2023-04-22T00:13:31;8.87;;;2.20;;
20181;SDS011;10250;50.756;6.172;2023-04-22T00:15:32;10.80;;;2.37;;
20181;SDS011;10250;50.756;6.172;2023-04-22T00:17:32;11.97;;;2.80;;
20181;SDS011;10250;50.756;6.172;2023-04-22T00:19:33;13.03;;;2.93;;
20181;SDS011;10250;50.756;6.172;2023-04-22T00:21:34;11.07;;;2.60;;
20181;SDS011;10250;50.756;6.172;2023-04-22T00:23:34;9.77;;;2.57;;
20181;SDS011;10250;50.756;6.172;2023-04-22T00:25:35;9.30;;;2.37;;
20181;SDS011;10250;50.756;6.172;2023-04-22T00:27:35;9.40;;;2.30;;
20181;SDS011;10250;50.756;6.172;2023-04-22T00:29:36;10.97;;;2.90;;
20181;SDS011;10250;50.756;6.172;2023-04-22T00:31:37;10.47;;;2.40;;
20181;SDS011;10250;50.756;6.172;2023-04-22T00:33:37;9.47;;;2.20;;
20181;SDS011;10250;50.756;6.172;2023-04-22T00:35:38;10.03;;;2.80;;
20181;SDS011;10250;50.756;6.172;2023-04-22T00:37:39;10.47;;;2.40;;
20181;SDS011;10250;50.756;6.172;2023-04-22T00:39:39;8.73;;;2.43;;
20181;SDS011;10250;50.756;6.172;2023-04-22T00:41:40;8.97;;;2.40;;
20181;SDS011;10250;50.756;6.172;2023-04-22T00:43:40;11.60;;;2.70;;
20181;SDS011;10250;50.756;6.172;2023-04-22T00:45:41;10.67;;;3.10;;
20181;SDS011;10250;50.756;6.172;2023-04-22T00:47:43;11.10;;;2.20;;
20181;SDS011;10250;50.756;6.172;2023-04-22T00:49:45;8.80;;;2.47;;
20181;SDS011;10250;50.756;6.172;2023-04-22T00:51:47;10.70;;;2.70;;
20181;SDS011;10250;50.756;6.172;2023-04-22T00:53:47;7.33;;;2.07;;
20181;SDS011;10250;50.756;6.172;2023-04-22T00:55:48;9.67;;;2.40;;
20181;SDS011;10250;50.756;6.172;2023-04-22T00:57:48;10.90;;;2.77;;
20181;SDS011;10250;50.756;6.172;2023-04-22T00:59:50;10.60;;;2.87;;
20181;SDS011;10250;50.756;6.172;2023-04-22T01:01:52;11.80;;;3.00;;
20181;SDS011;10250;50.756;6.172;2023-04-22T01:03:53;10.03;;;2.60;;
20181;SDS011;10250;50.756;6.172;2023-04-22T01:05:53;9.07;;;2.60;;
20181;SDS011;10250;50.756;6.172;2023-04-22T01:07:55;10.30;;;2.47;;
20181;SDS011;10250;50.756;6.172;2023-04-22T01:09:55;10.67;;;2.70;;
20181;SDS011;10250;50.756;6.172;2023-04-22T01:11:56;10.23;;;2.83;;
20181;SDS011;10250;50.756;6.172;2023-04-22T01:13:57;10.93;;;2.70;;
20181;SDS011;10250;50.756;6.172;2023-04-22T01:15:57;12.23;;;2.90;;
20181;SDS011;10250;50.756;6.172;2023-04-22T01:18:00;12.53;;;2.77;;
20181;SDS011;10250;50.756;6.172;2023-04-22T01:20:01;13.27;;;2.90;;
20181;SDS011;10250;50.756;6.172;2023-04-22T01:22:04;12.03;;;2.90;;
20181;SDS011;10250;50.756;6.172;2023-04-22T01:24:07;11.00;;;2.70;;
20181;SDS011;10250;50.756;6.172;2023-04-22T01:26:08;9.33;;;2.00;;
20181;SDS011;10250;50.756;6.172;2023-04-22T01:28:09;10.13;;;2.67;;
20181;SDS011;10250;50.756;6.172;2023-04-22T01:30:10;9.23;;;2.33;;
20181;SDS011;10250;50.756;6.172;2023-04-22T01:32:10;10.63;;;2.67;;
20181;SDS011;10250;50.756;6.172;2023-04-22T01:34:11;9.40;;;2.60;;
20181;SDS011;10250;50.756;6.172;2023-04-22T01:36:12;7.83;;;2.20;;
20181;SDS011;10250;50.756;6.172;2023-04-22T01:38:12;11.03;;;2.70;;
20181;SDS011;10250;50.756;6.172;2023-04-22T01:40:13;9.13;;;2.37;;
20181;SDS011;10250;50.756;6.172;2023-04-22T01:42:18;9.77;;;2.33;;
20181;SDS011;10250;50.756;6.172;2023-04-22T01:44:19;6.77;;;1.97;;
20181;SDS011;10250;50.756;6.172;2023-04-22T01:46:19;9.07;;;2.40;;
20181;SDS011;10250;50.756;6.172;2023-04-22T01:48:20;9.00;;;2.30;;
20181;SDS011;10250;50.756;6.172;2023-04-22T01:50:21;10.20;;;2.60;;
20181;SDS011;10250;50.756;6.172;2023-04-22T01:52:21;10.27;;;2.43;;
20181;SDS011;10250;50.756;6.172;2023-04-22T01:54:22;10.63;;;2.50;;
20181;SDS011;10250;50.756;6.172;2023-04-22T01:56:23;8.87;;;2.33;;
20181;SDS011;10250;50.756;6.172;2023-04-22T01:58:23;12.17;;;3.00;;
20181;SDS011;10250;50.756;6.172;2023-04-22T02:00:27;10.23;;;2.33;;
20181;SDS011;10250;50.756;6.172;2023-04-22T02:02:28;8.43;;;2.30;;
20181;SDS011;10250;50.756;6.172;2023-04-22T02:04:28;9.77;;;2.30;;
20181;SDS011;10250;50.756;6.172;2023-04-22T02:06:29;9.43;;;2.33;;
20181;SDS011;10250;50.756;6.172;2023-04-22T02:08:30;9.70;;;2.60;;
20181;SDS011;10250;50.756;6.172;2023-04-22T02:10:31;9.30;;;2.50;;
20181;SDS011;10250;50.756;6.172;2023-04-22T02:12:31;7.40;;;2.10;;
20181;SDS011;10250;50.756;6.172;2023-04-22T02:14:32;8.53;;;2.50;;
20181;SDS011;10250;50.756;6.172;2023-04-22T02:16:33;7.97;;;2.13;;
20181;SDS011;10250;50.756;6.172;2023-04-22T02:18:33;11.50;;;2.50;;
20181;SDS011;10250;50.756;6.172;2023-04-22T02:20:34;8.37;;;2.30;;
20181;SDS011;10250;50.756;6.172;2023-04-22T02:22:35;8.17;;;2.17;;
20181;SDS011;10250;50.756;6.172;2023-04-22T02:24:37;8.47;;;2.70;;
20181;SDS011;10250;50.756;6.172;2023-04-22T02:26:37;9.33;;;2.30;;
20181;SDS011;10250;50.756;6.172;2023-04-22T02:28:38;9.17;;;2.50;;
20181;SDS011;10250;50.756;6.172;2023-04-22T02:30:38;9.67;;;2.40;;
20181;SDS011;10250;50.756;6.172;2023-04-22T02:32:39;9.90;;;2.47;;
20181;SDS011;10250;50.756;6.172;2023-04-22T02:34:40;11.07;;;2.57;;
20181;SDS011;10250;50.756;6.172;2023-04-22T02:36:40;10.73;;;2.27;;
20181;SDS011;10250;50.756;6.172;2023-04-22T02:38:41;10.37;;;2.57;;
20181;SDS011;10250;50.756;6.172;2023-04-22T02:40:41;7.20;;;2.23;;
20181;SDS011;10250;50.756;6.172;2023-04-22T02:42:42;9.80;;;2.63;;
20181;SDS011;10250;50.756;6.172;2023-04-22T02:44:42;9.43;;;2.33;;
20181;SDS011;10250;50.756;6.172;2023-04-22T02:46:43;8.53;;;2.43;;
20181;SDS011;10250;50.756;6.172;2023-04-22T02:48:43;11.47;;;2.80;;
20181;SDS011;10250;50.756;6.172;2023-04-22T02:50:44;6.77;;;2.13;;
20181;SDS011;10250;50.756;6.172;2023-04-22T02:52:45;12.50;;;3.27;;
20181;SDS011;10250;50.756;6.172;2023-04-22T02:54:45;8.27;;;2.13;;
20181;SDS011;10250;50.756;6.172;2023-04-22T02:56:46;9.97;;;2.30;;
20181;SDS011;10250;50.756;6.172;2023-04-22T02:58:46;10.50;;;2.73;;
20181;SDS011;10250;50.756;6.172;2023-04-22T03:00:47;12.17;;;2.77;;
20181;SDS011;10250;50.756;6.172;2023-04-22T03:02:47;11.63;;;2.80;;
20181;SDS011;10250;50.756;6.172;2023-04-22T03:04:48;10.93;;;2.60;;
20181;SDS011;10250;50.756;6.172;2023-04-22T03:06:48;8.53;;;2.30;;
20181;SDS011;10250;50.756;6.172;2023-04-22T03:08:49;7.90;;;2.13;;
20181;SDS011;10250;50.756;6.172;2023-04-22T03:10:50;10.33;;;2.60;;
20181;SDS011;10250;50.756;6.172;2023-04-22T03:12:50;9.40;;;2.50;;
20181;SDS011;10250;50.756;6.172;2023-04-22T03:14:51;6.90;;;1.93;;
20181;SDS011;10250;50.756;6.172;2023-04-22T03:16:51;10.17;;;2.47;;
20181;SDS011;10250;50.756;6.172;2023-04-22T03:18:52;9.40;;;2.63;;
20181;SDS011;10250;50.756;6.172;2023-04-22T03:20:52;10.60;;;2.53;;
20181;SDS011;10250;50.756;6.172;2023-04-22T03:22:53;9.20;;;2.30;;
20181;SDS011;10250;50.756;6.172;2023-04-22T03:24:54;7.40;;;1.97;;
20181;SDS011;10250;50.756;6.172;2023-04-22T03:26:55;6.70;;;2.13;;
20181;SDS011;10250;50.756;6.172;2023-04-22T03:28:55;9.60;;;1.80;;
20181;SDS011;10250;50.756;6.172;2023-04-22T03:30:56;7.57;;;2.13;;
20181;SDS011;10250;50.756;6.172;2023-04-22T03:32:56;9.00;;;2.03;;
20181;SDS011;10250;50.756;6.172;2023-04-22T03:34:57;8.40;;;2.23;;
20181;SDS011;10250;50.756;6.172;2023-04-22T03:36:58;6.40;;;1.90;;
20181;SDS011;10250;50.756;6.172;2023-04-22T03:38:58;8.47;;;2.20;;
20181;SDS011;10250;50.756;6.172;2023-04-22T03:40:59;9.20;;;2.10;;
20181;SDS011;10250;50.756;6.172;2023-04-22T03:42:59;7.57;;;2.13;;
20181;SDS011;10250;50.756;6.172;2023-04-22T03:45:00;6.83;;;2.13;;
20181;SDS011;10250;50.756;6.172;2023-04-22T03:47:01;5.80;;;1.70;;
20181;SDS011;10250;50.756;6.172;2023-04-22T03:49:01;8.03;;;2.10;;
20181;SDS011;10250;50.756;6.172;2023-04-22T03:51:02;9.03;;;2.43;;
20181;SDS011;10250;50.756;6.172;2023-04-22T03:53:03;8.10;;;1.93;;
20181;SDS011;10250;50.756;6.172;2023-04-22T03:55:03;9.20;;;2.20;;
20181;SDS011;10250;50.756;6.172;2023-04-22T03:57:04;7.83;;;2.10;;
20181;SDS011;10250;50.756;6.172;2023-04-22T03:59:05;8.60;;;2.10;;
20181;SDS011;10250;50.756;6.172;2023-04-22T04:01:06;6.93;;;2.00;;
20181;SDS011;10250;50.756;6.172;2023-04-22T04:03:06;9.30;;;2.30;;
20181;SDS011;10250;50.756;6.172;2023-04-22T04:05:07;8.20;;;2.30;;
20181;SDS011;10250;50.756;6.172;2023-04-22T04:07:10;9.77;;;2.30;;
20181;SDS011;10250;50.756;6.172;2023-04-22T04:09:10;7.37;;;1.97;;
20181;SDS011;10250;50.756;6.172;2023-04-22T04:11:11;8.43;;;2.30;;
20181;SDS011;10250;50.756;6.172;2023-04-22T04:13:11;7.23;;;2.20;;
20181;SDS011;10250;50.756;6.172;2023-04-22T04:15:12;10.40;;;1.87;;
20181;SDS011;10250;50.756;6.172;2023-04-22T04:17:12;7.93;;;2.03;;
20181;SDS011;10250;50.756;6.172;2023-04-22T04:19:14;8.10;;;2.10;;
20181;SDS011;10250;50.756;6.172;2023-04-22T04:21:14;9.77;;;2.40;;
20181;SDS011;10250;50.756;6.172;2023-04-22T04:23:15;7.77;;;2.13;;
20181;SDS011;10250;50.756;6.172;2023-04-22T04:25:16;5.93;;;1.80;;
20181;SDS011;10250;50.756;6.172;2023-04-22T04:27:17;9.67;;;2.37;;
20181;SDS011;10250;50.756;6.172;2023-04-22T04:29:18;7.80;;;2.13;;
20181;SDS011;10250;50.756;6.172;2023-04-22T04:31:19;6.87;;;1.93;;
20181;SDS011;10250;50.756;6.172;2023-04-22T04:33:20;10.30;;;2.17;;
20181;SDS011;10250;50.756;6.172;2023-04-22T04:35:20;11.40;;;1.93;;
20181;SDS011;10250;50.756;6.172;2023-04-22T04:37:22;7.33;;;2.13;;
20181;SDS011;10250;50.756;6.172;2023-04-22T04:39:23;7.90;;;1.80;;
20181;SDS011;10250;50.756;6.172;2023-04-22T04:41:25;8.57;;;2.00;;
20181;SDS011;10250;50.756;6.172;2023-04-22T04:43:27;8.57;;;1.97;;
20181;SDS011;10250;50.756;6.172;2023-04-22T04:45:28;5.97;;;1.80;;
20181;SDS011;10250;50.756;6.172;2023-04-22T04:47:29;7.77;;;2.00;;
20181;SDS011;10250;50.756;6.172;2023-04-22T04:49:32;5.87;;;1.70;;
20181;SDS011;10250;50.756;6.172;2023-04-22T04:51:38;7.93;;;1.90;;
20181;SDS011;10250;50.756;6.172;2023-04-22T04:53:39;7.13;;;2.00;;
20181;SDS011;10250;50.756;6.172;2023-04-22T04:55:39;5.90;;;1.93;;
20181;SDS011;10250;50.756;6.172;2023-04-22T04:57:40;6.60;;;1.80;;
20181;SDS011;10250;50.756;6.172;2023-04-22T04:59:42;7.40;;;2.03;;
20181;SDS011;10250;50.756;6.172;2023-04-22T05:01:42;8.93;;;2.10;;
20181;SDS011;10250;50.756;6.172;2023-04-22T05:03:43;6.20;;;1.80;;
20181;SDS011;10250;50.756;6.172;2023-04-22T05:05:43;7.23;;;1.90;;
20181;SDS011;10250;50.756;6.172;2023-04-22T05:07:47;4.23;;;1.37;;
20181;SDS011;10250;50.756;6.172;2023-04-22T05:09:47;8.30;;;2.10;;
20181;SDS011;10250;50.756;6.172;2023-04-22T05:11:48;7.77;;;1.90;;
20181;SDS011;10250;50.756;6.172;2023-04-22T05:13:49;6.30;;;1.80;;
20181;SDS011;10250;50.756;6.172;2023-04-22T05:15:49;9.73;;;2.00;;
20181;SDS011;10250;50.756;6.172;2023-04-22T05:17:50;8.03;;;1.90;;
20181;SDS011;10250;50.756;6.172;2023-04-22T05:19:50;5.50;;;1.70;;
20181;SDS011;10250;50.756;6.172;2023-04-22T05:21:51;7.37;;;2.23;;
20181;SDS011;10250;50.756;6.172;2023-04-22T05:23:51;7.87;;;1.83;;
20181;SDS011;10250;50.756;6.172;2023-04-22T05:25:52;6.83;;;2.10;;
20181;SDS011;10250;50.756;6.172;2023-04-22T05:27:52;5.83;;;1.83;;
20181;SDS011;10250;50.756;6.172;2023-04-22T05:29:53;7.37;;;2.00;;
20181;SDS011;10250;50.756;6.172;2023-04-22T05:31:53;6.47;;;1.83;;
20181;SDS011;10250;50.756;6.172;2023-04-22T05:33:54;6.57;;;1.70;;
20181;SDS011;10250;50.756;6.172;2023-04-22T05:35:55;6.20;;;1.90;;
20181;SDS011;10250;50.756;6.172;2023-04-22T05:37:55;4.67;;;1.70;;
20181;SDS011;10250;50.756;6.172;2023-04-22T05:39:56;8.20;;;2.00;;
20181;SDS011;10250;50.756;6.172;2023-04-22T05:41:56;8.23;;;2.07;;
20181;SDS011;10250;50.756;6.172;2023-04-22T05:43:57;7.53;;;1.93;;
20181;SDS011;10250;50.756;6.172;2023-04-22T05:45:58;7.40;;;1.90;;
20181;SDS011;10250;50.756;6.172;2023-04-22T05:47:58;7.47;;;1.93;;
20181;SDS011;10250;50.756;6.172;2023-04-22T05:49:59;7.93;;;2.10;;
20181;SDS011;10250;50.756;6.172;2023-04-22T05:52:00;7.60;;;1.70;;
20181;SDS011;10250;50.756;6.172;2023-04-22T05:54:00;6.23;;;1.80;;
20181;SDS011;10250;50.756;6.172;2023-04-22T05:56:01;7.13;;;1.80;;
20181;SDS011;10250;50.756;6.172;2023-04-22T05:58:01;8.33;;;2.00;;
20181;SDS011;10250;50.756;6.172;2023-04-22T06:00:02;5.73;;;1.73;;
20181;SDS011;10250;50.756;6.172;2023-04-22T06:02:03;7.53;;;1.90;;
20181;SDS011;10250;50.756;6.172;2023-04-22T06:04:04;11.17;;;2.10;;
20181;SDS011;10250;50.756;6.172;2023-04-22T06:06:05;4.27;;;1.47;;
20181;SDS011;10250;50.756;6.172;2023-04-22T06:08:06;6.40;;;1.70;;
20181;SDS011;10250;50.756;6.172;2023-04-22T06:10:07;7.63;;;1.83;;
20181;SDS011;10250;50.756;6.172;2023-04-22T06:12:08;5.83;;;1.87;;
20181;SDS011;10250;50.756;6.172;2023-04-22T06:14:09;8.17;;;2.20;;
20181;SDS011;10250;50.756;6.172;2023-04-22T06:16:11;7.40;;;1.97;;
20181;SDS011;10250;50.756;6.172;2023-04-22T06:18:11;6.60;;;1.80;;
20181;SDS011;10250;50.756;6.172;2023-04-22T06:20:12;7.30;;;2.07;;
20181;SDS011;10250;50.756;6.172;2023-04-22T06:22:13;6.90;;;1.90;;
20181;SDS011;10250;50.756;6.172;2023-04-22T06:24:13;5.20;;;1.70;;
20181;SDS011;10250;50.756;6.172;2023-04-22T06:26:14;4.57;;;1.67;;
20181;SDS011;10250;50.756;6.172;2023-04-22T06:28:14;8.90;;;2.10;;
20181;SDS011;10250;50.756;6.172;2023-04-22T06:30:15;7.53;;;2.00;;
20181;SDS011;10250;50.756;6.172;2023-04-22T06:32:16;8.37;;;1.73;;
20181;SDS011;10250;50.756;6.172;2023-04-22T06:34:16;7.17;;;1.73;;
20181;SDS011;10250;50.756;6.172;2023-04-22T06:36:17;5.47;;;1.70;;
20181;SDS011;10250;50.756;6.172;2023-04-22T06:38:17;7.97;;;1.83;;
20181;SDS011;10250;50.756;6.172;2023-04-22T06:40:18;9.00;;;1.93;;
20181;SDS011;10250;50.756;6.172;2023-04-22T06:42:18;6.83;;;1.83;;
20181;SDS011;10250;50.756;6.172;2023-04-22T06:44:20;7.80;;;1.90;;
20181;SDS011;10250;50.756;6.172;2023-04-22T06:46:21;8.60;;;2.10;;
20181;SDS011;10250;50.756;6.172;2023-04-22T06:48:21;9.73;;;2.30;;
20181;SDS011;10250;50.756;6.172;2023-04-22T06:50:23;5.80;;;1.60;;
20181;SDS011;10250;50.756;6.172;2023-04-22T06:52:24;7.63;;;1.97;;
20181;SDS011;10250;50.756;6.172;2023-04-22T06:54:24;5.67;;;1.70;;
20181;SDS011;10250;50.756;6.172;2023-04-22T06:56:25;5.67;;;1.80;;
20181;SDS011;10250;50.756;6.172;2023-04-22T06:58:25;6.57;;;1.80;;
20181;SDS011;10250;50.756;6.172;2023-04-22T07:00:26;8.10;;;2.20;;
20181;SDS011;10250;50.756;6.172;2023-04-22T07:02:27;7.30;;;1.77;;
20181;SDS011;10250;50.756;6.172;2023-04-22T07:04:27;9.67;;;2.13;;
20181;SDS011;10250;50.756;6.172;2023-04-22T07:06:30;7.00;;;1.90;;
20181;SDS011;10250;50.756;6.172;2023-04-22T07:08:31;6.47;;;2.10;;
20181;SDS011;10250;50.756;6.172;2023-04-22T07:10:32;8.27;;;1.97;;
20181;SDS011;10250;50.756;6.172;2023-04-22T07:12:33;7.40;;;1.80;;
20181;SDS011;10250;50.756;6.172;2023-04-22T07:14:33;6.93;;;1.80;;
20181;SDS011;10250;50.756;6.172;2023-04-22T07:16:34;9.03;;;2.10;;
20181;SDS011;10250;50.756;6.172;2023-04-22T07:18:34;6.13;;;1.60;;
20181;SDS011;10250;50.756;6.172;2023-04-22T07:20:35;7.10;;;1.67;;
20181;SDS011;10250;50.756;6.172;2023-04-22T07:22:35;5.93;;;1.60;;
20181;SDS011;10250;50.756;6.172;2023-04-22T07:24:36;6.10;;;1.80;;
20181;SDS011;10250;50.756;6.172;2023-04-22T07:26:41;5.10;;;1.80;;
20181;SDS011;10250;50.756;6.172;2023-04-22T07:28:42;11.83;;;2.00;;
20181;SDS011;10250;50.756;6.172;2023-04-22T07:30:42;9.00;;;2.27;;
20181;SDS011;10250;50.756;6.172;2023-04-22T07:32:43;6.53;;;1.90;;
20181;SDS011;10250;50.756;6.172;2023-04-22T07:34:43;7.43;;;1.87;;
20181;SDS011;10250;50.756;6.172;2023-04-22T07:36:44;5.47;;;1.77;;
20181;SDS011;10250;50.756;6.172;2023-04-22T07:38:45;8.27;;;1.80;;
20181;SDS011;10250;50.756;6.172;2023-04-22T07:40:45;10.57;;;2.17;;
20181;SDS011;10250;50.756;6.172;2023-04-22T07:42:46;4.77;;;1.67;;
20181;SDS011;10250;50.756;6.172;2023-04-22T07:44:46;6.30;;;1.60;;
20181;SDS011;10250;50.756;6.172;2023-04-22T07:46:47;6.27;;;2.00;;
20181;SDS011;10250;50.756;6.172;2023-04-22T07:48:49;6.47;;;1.80;;
20181;SDS011;10250;50.756;6.172;2023-04-22T07:50:49;7.67;;;1.90;;
20181;SDS011;10250;50.756;6.172;2023-04-22T07:52:50;7.70;;;1.90;;
20181;SDS011;10250;50.756;6.172;2023-04-22T07:54:50;5.90;;;1.50;;
20181;SDS011;10250;50.756;6.172;2023-04-22T07:56:51;6.90;;;1.77;;
20181;SDS011;10250;50.756;6.172;2023-04-22T07:58:52;8.23;;;1.70;;
20181;SDS011;10250;50.756;6.172;2023-04-22T08:00:52;6.10;;;1.60;;
20181;SDS011;10250;50.756;6.172;2023-04-22T08:02:53;8.00;;;1.73;;
20181;SDS011;10250;50.756;6.172;2023-04-22T08:04:53;11.60;;;2.10;;
20181;SDS011;10250;50.756;6.172;2023-04-22T08:06:54;8.03;;;1.97;;
20181;SDS011;10250;50.756;6.172;2023-04-22T08:08:55;5.83;;;1.80;;
20181;SDS011;10250;50.756;6.172;2023-04-22T08:10:55;7.10;;;1.67;;
20181;SDS011;10250;50.756;6.172;2023-04-22T08:12:56;8.03;;;1.93;;
20181;SDS011;10250;50.756;6.172;2023-04-22T08:14:57;7.20;;;1.90;;
20181;SDS011;10250;50.756;6.172;2023-04-22T08:16:57;5.67;;;1.70;;
20181;SDS011;10250;50.756;6.172;2023-04-22T08:18:58;5.27;;;1.60;;
20181;SDS011;10250;50.756;6.172;2023-04-22T08:20:58;8.00;;;1.87;;
20181;SDS011;10250;50.756;6.172;2023-04-22T08:22:59;8.97;;;2.00;;
20181;SDS011;10250;50.756;6.172;2023-04-22T08:24:59;7.37;;;1.87;;
20181;SDS011;10250;50.756;6.172;2023-04-22T08:27:00;5.00;;;1.70;;
20181;SDS011;10250;50.756;6.172;2023-04-22T08:29:01;7.13;;;1.83;;
20181;SDS011;10250;50.756;6.172;2023-04-22T08:31:03;6.13;;;1.70;;
20181;SDS011;10250;50.756;6.172;2023-04-22T08:33:03;5.57;;;1.83;;
20181;SDS011;10250;50.756;6.172;2023-04-22T08:35:04;6.03;;;1.73;;
20181;SDS011;10250;50.756;6.172;2023-04-22T08:37:05;7.43;;;1.90;;
20181;SDS011;10250;50.756;6.172;2023-04-22T08:39:05;6.93;;;1.77;;
20181;SDS011;10250;50.756;6.172;2023-04-22T08:41:06;5.67;;;1.50;;
20181;SDS011;10250;50.756;6.172;2023-04-22T08:43:07;6.33;;;1.70;;
20181;SDS011;10250;50.756;6.172;2023-04-22T08:45:08;4.27;;;1.40;;
20181;SDS011;10250;50.756;6.172;2023-04-22T08:47:09;6.97;;;1.60;;
20181;SDS011;10250;50.756;6.172;2023-04-22T08:49:15;6.97;;;1.70;;
20181;SDS011;10250;50.756;6.172;2023-04-22T08:51:16;5.67;;;1.83;;
20181;SDS011;10250;50.756;6.172;2023-04-22T08:53:17;5.23;;;1.50;;
20181;SDS011;10250;50.756;6.172;2023-04-22T08:55:17;7.40;;;1.87;;
20181;SDS011;10250;50.756;6.172;2023-04-22T08:57:18;5.27;;;1.67;;
20181;SDS011;10250;50.756;6.172;2023-04-22T08:59:19;8.73;;;1.97;;
20181;SDS011;10250;50.756;6.172;2023-04-22T09:01:22;6.50;;;1.63;;
20181;SDS011;10250;50.756;6.172;2023-04-22T09:03:24;5.03;;;1.63;;
20181;SDS011;10250;50.756;6.172;2023-04-22T09:05:25;4.80;;;1.60;;
20181;SDS011;10250;50.756;6.172;2023-04-22T09:07:27;5.60;;;1.67;;
20181;SDS011;10250;50.756;6.172;2023-04-22T09:09:29;6.40;;;1.97;;
20181;SDS011;10250;50.756;6.172;2023-04-22T09:11:31;6.30;;;1.70;;
20181;SDS011;10250;50.756;6.172;2023-04-22T09:13:32;9.13;;;2.00;;
20181;SDS011;10250;50.756;6.172;2023-04-22T09:15:33;10.13;;;1.93;;
20181;SDS011;10250;50.756;6.172;2023-04-22T09:17:34;4.50;;;1.80;;
20181;SDS011;10250;50.756;6.172;2023-04-22T09:19:37;5.63;;;1.70;;
20181;SDS011;10250;50.756;6.172;2023-04-22T09:21:38;8.03;;;1.80;;
20181;SDS011;10250;50.756;6.172;2023-04-22T09:23:44;7.33;;;2.07;;
20181;SDS011;10250;50.756;6.172;2023-04-22T09:25:45;5.47;;;1.73;;
20181;SDS011;10250;50.756;6.172;2023-04-22T09:27:49;6.83;;;1.83;;
20181;SDS011;10250;50.756;6.172;2023-04-22T09:29:51;6.57;;;1.77;;
20181;SDS011;10250;50.756;6.172;2023-04-22T09:31:52;7.00;;;1.80;;
20181;SDS011;10250;50.756;6.172;2023-04-22T09:33:56;5.37;;;1.83;;
20181;SDS011;10250;50.756;6.172;2023-04-22T09:35:59;7.93;;;2.17;;
20181;SDS011;10250;50.756;6.172;2023-04-22T09:38:09;6.43;;;1.90;;
20181;SDS011;10250;50.756;6.172;2023-04-22T09:40:13;8.13;;;1.90;;
20181;SDS011;10250;50.756;6.172;2023-04-22T09:42:17;7.73;;;1.93;;
20181;SDS011;10250;50.756;6.172;2023-04-22T09:44:18;7.97;;;1.90;;
20181;SDS011;10250;50.756;6.172;2023-04-22T09:46:20;7.63;;;2.20;;
20181;SDS011;10250;50.756;6.172;2023-04-22T09:48:22;8.00;;;1.67;;
20181;SDS011;10250;50.756;6.172;2023-04-22T09:50:26;6.57;;;1.90;;
20181;SDS011;10250;50.756;6.172;2023-04-22T09:52:28;8.87;;;2.33;;
20181;SDS011;10250;50.756;6.172;2023-04-22T09:54:31;5.83;;;1.90;;
20181;SDS011;10250;50.756;6.172;2023-04-22T09:56:38;9.10;;;1.90;;
20181;SDS011;10250;50.756;6.172;2023-04-22T09:58:42;7.30;;;2.13;;
20181;SDS011;10250;50.756;6.172;2023-04-22T10:00:52;6.73;;;1.77;;
20181;SDS011;10250;50.756;6.172;2023-04-22T10:02:55;8.33;;;1.80;;
20181;SDS011;10250;50.756;6.172;2023-04-22T10:04:56;5.77;;;1.60;;
20181;SDS011;10250;50.756;6.172;2023-04-22T10:06:57;7.23;;;2.07;;
20181;SDS011;10250;50.756;6.172;2023-04-22T10:08:58;4.97;;;1.50;;
20181;SDS011;10250;50.756;6.172;2023-04-22T10:11:00;7.00;;;1.80;;
20181;SDS011;10250;50.756;6.172;2023-04-22T10:13:01;6.33;;;1.70;;
20181;SDS011;10250;50.756;6.172;2023-04-22T10:15:03;6.43;;;1.90;;
20181;SDS011;10250;50.756;6.172;2023-04-22T10:17:07;7.60;;;2.00;;
20181;SDS011;10250;50.756;6.172;2023-04-22T10:19:09;5.53;;;1.80;;
20181;SDS011;10250;50.756;6.172;2023-04-22T10:21:16;6.43;;;1.70;;
20181;SDS011;10250;50.756;6.172;2023-04-22T10:23:20;7.97;;;2.00;;
20181;SDS011;10250;50.756;6.172;2023-04-22T10:25:22;4.97;;;1.60;;
20181;SDS011;10250;50.756;6.172;2023-04-22T10:27:24;7.00;;;1.70;;
20181;SDS011;10250;50.756;6.172;2023-04-22T10:29:26;6.33;;;2.07;;
20181;SDS011;10250;50.756;6.172;2023-04-22T10:31:36;6.33;;;1.67;;
20181;SDS011;10250;50.756;6.172;2023-04-22T10:33:37;11.47;;;2.13;;
20181;SDS011;10250;50.756;6.172;2023-04-22T10:35:38;7.03;;;1.90;;
20181;SDS011;10250;50.756;6.172;2023-04-22T10:37:42;7.63;;;1.80;;
20181;SDS011;10250;50.756;6.172;2023-04-22T10:42:09;9.40;;;2.10;;
20181;SDS011;10250;50.756;6.172;2023-04-22T10:44:11;7.90;;;2.07;;
20181;SDS011;10250;50.756;6.172;2023-04-22T10:48:47;8.93;;;2.00;;
20181;SDS011;10250;50.756;6.172;2023-04-22T10:50:50;9.37;;;2.13;;
20181;SDS011;10250;50.756;6.172;2023-04-22T10:52:59;9.60;;;2.30;;
20181;SDS011;10250;50.756;6.172;2023-04-22T10:55:20;8.07;;;2.10;;
20181;SDS011;10250;50.756;6.172;2023-04-22T10:57:21;11.93;;;2.27;;
20181;SDS011;10250;50.756;6.172;2023-04-22T10:59:21;7.67;;;2.00;;
20181;SDS011;10250;50.756;6.172;2023-04-22T11:01:22;6.03;;;1.77;;
20181;SDS011;10250;50.756;6.172;2023-04-22T11:03:27;6.03;;;1.80;;
20181;SDS011;10250;50.756;6.172;2023-04-22T11:05:28;6.47;;;1.93;;
20181;SDS011;10250;50.756;6.172;2023-04-22T11:07:30;6.27;;;1.77;;
20181;SDS011;10250;50.756;6.172;2023-04-22T11:09:33;7.30;;;1.87;;
20181;SDS011;10250;50.756;6.172;2023-04-22T11:11:39;6.73;;;2.00;;
20181;SDS011;10250;50.756;6.172;2023-04-22T11:13:40;8.93;;;2.23;;
20181;SDS011;10250;50.756;6.172;2023-04-22T11:15:45;8.23;;;2.00;;
20181;SDS011;10250;50.756;6.172;2023-04-22T11:17:53;7.10;;;1.87;;
20181;SDS011;10250;50.756;6.172;2023-04-22T11:19:54;5.67;;;1.90;;
20181;SDS011;10250;50.756;6.172;2023-04-22T11:21:57;9.53;;;2.07;;
20181;SDS011;10250;50.756;6.172;2023-04-22T11:23:57;6.90;;;1.90;;
20181;SDS011;10250;50.756;6.172;2023-04-22T11:26:04;7.10;;;1.90;;
20181;SDS011;10250;50.756;6.172;2023-04-22T11:28:06;6.67;;;1.80;;
20181;SDS011;10250;50.756;6.172;2023-04-22T11:32:15;10.97;;;2.30;;
20181;SDS011;10250;50.756;6.172;2023-04-22T11:34:16;6.40;;;1.90;;
20181;SDS011;10250;50.756;6.172;2023-04-22T11:36:17;6.57;;;1.83;;
20181;SDS011;10250;50.756;6.172;2023-04-22T11:38:18;9.87;;;1.80;;
20181;SDS011;10250;50.756;6.172;2023-04-22T11:40:20;6.57;;;1.80;;
20181;SDS011;10250;50.756;6.172;2023-04-22T11:42:24;5.27;;;1.60;;
20181;SDS011;10250;50.756;6.172;2023-04-22T11:44:25;10.50;;;1.80;;
20181;SDS011;10250;50.756;6.172;2023-04-22T11:46:29;6.57;;;1.77;;
20181;SDS011;10250;50.756;6.172;2023-04-22T11:48:30;7.57;;;1.60;;
20181;SDS011;10250;50.756;6.172;2023-04-22T11:50:32;6.50;;;1.50;;
20181;SDS011;10250;50.756;6.172;2023-04-22T11:54:46;5.33;;;1.40;;
20181;SDS011;10250;50.756;6.172;2023-04-22T11:56:47;5.20;;;1.50;;
20181;SDS011;10250;50.756;6.172;2023-04-22T11:58:48;6.63;;;1.80;;
20181;SDS011;10250;50.756;6.172;2023-04-22T12:00:49;7.10;;;1.77;;
20181;SDS011;10250;50.756;6.172;2023-04-22T12:02:54;6.47;;;1.80;;
20181;SDS011;10250;50.756;6.172;2023-04-22T12:05:15;9.70;;;1.93;;
20181;SDS011;10250;50.756;6.172;2023-04-22T12:07:16;6.47;;;1.60;;
20181;SDS011;10250;50.756;6.172;2023-04-22T12:09:16;8.47;;;1.80;;
20181;SDS011;10250;50.756;6.172;2023-04-22T12:11:20;7.50;;;1.73;;
20181;SDS011;10250;50.756;6.172;2023-04-22T12:13:24;13.50;;;3.80;;
20181;SDS011;10250;50.756;6.172;2023-04-22T12:15:36;7.67;;;2.00;;
20181;SDS011;10250;50.756;6.172;2023-04-22T12:17:43;9.03;;;1.63;;
20181;SDS011;10250;50.756;6.172;2023-04-22T12:19:46;4.67;;;1.20;;